Search for airport 
image banner adimage banner ad
image banner ad

SVAQ - Air Star Helicopters

Located in Barquisimeto, Venezuela

ICAO - SVAQ, IATA -

Data provided by Airmate  

General information

Coordinates: N10°2'18" W69°21'19"
Elevation is 196 feet MSL.
 
Rated:
View ratings: [VIEW]


View others Airports in Cojedes

Operational data

Open for public use
Current time UTC:
Current local time:
METAR: SVBM 092000Z 14006KT 9999 BKN016 28/19 Q1014
View NOTAMs / SUP AIP / TFR affecting this airport [VIEW]
Communications frequencies: [VIEW]

Runways:

Airport contact information

Address: Barquisimeto Venezuela

Satellite view of SVAQ